Home PIREPS Pireps

Flight BEL7227

  • Submitted By: Vincent Fourni
  • Departure Airport: Bruxelles National (EBBR)
  • Arrival Airport: Oslo Airport, Gardermoen (ENGM)
  • Aircraft: BAE AVRO RJ1 (OO-DWC)
  • Flight Time: 01.59
  • Date Submitted: 19/01/2018
  • Status: Accepted
Flight Details
Gross Revenue:
(79 load / € 150.00 per unit
€ 11,850.00
Fuel Cost:
(11535 fuel used @ 5.1 / unit)
€ 58,828.50

Additional Log Information:

View Log

Aircraft Used in flight is PMDG 777-200LR PMDG Brussels
20:42 Brakes are On
20:45 Brakes are Released
20:47 Brakes are On
20:49 Brakes are Released
20:54 You Took off @ 185 Knots and Flaps at Position 2
Departure Weather
EBBR 191920Z 24010KT CAVOK 03/01 Q1009 NOSIGrn
20:55 Landing Gear Up @ 210 Knots and 500 Feet
20:57 Below 10000 feet you are not allowed to go over 250 knots
20:57 Above FL100 you need to switch of the landing lights
22:38 Landing Gear Down @ 208 Knots and 2790 Feet
22:40 You Landed @ 176 Knots and with -1700 Vertical Speed
Arrival Weather
ENGM 192120Z VRB02KT 9999 OVC008 M03/M04 Q1002 NOSIGrn
22:40 Your Landing was very hard
22:40 Paused
22:42 Unpaused
22:42 Paused
22:44 Unpaused
22:44 Brakes are On
22:45 Brussels Bel-Track1.0.1.2

Route Map

Corporate About Us Our Team Vacancies Information Fleet Route Network Rules and Regulations Operations Flight Schedules Event Center Tours Partners IVAO Vatsim Acars dev FSCB

fb Users Online No pilots online!
0 Pilot(s) and 153 Guest(s) Online
CMS by phpVMS - Design by Crazycreatives.com - Copyright © 2020 - Brussels Airlines Virtual